Time;durP1;ratioP1;P1;durP2;ratioP2;P2;SDS_P1;SDS_P2;PMS_P1;PMS_P2;Temp;Humidity;BMP_temperature;BMP_pressure;BME280_temperature;BME280_humidity;BME280_pressure;Samples;Min_cycle;Max_cycle;Signal;HPM_P1;HPM_P2
2023/01/22 00:00:56;;;;;;;;;;;;;;;-2.73;100.00;97096.63;5074547;28;20416;-72
2023/01/22 00:03:22;;;;;;;;;;;;;;;-2.71;100.00;97094.75;5074652;28;20404;-72
2023/01/22 00:05:51;;;;;;;;;;;;;;;-2.70;100.00;97090.41;5074372;28;19962;-72
2023/01/22 00:08:17;;;;;;;;;;;;;;;-2.69;100.00;97090.31;5074272;28;19963;-72
2023/01/22 00:10:50;;;;;;;;;;;;;;;-2.68;100.00;97088.56;5074425;28;19949;-72
2023/01/22 00:13:16;;;;;;;;;;;;;;;-2.68;100.00;97088.56;5073811;28;19957;-72
2023/01/22 00:15:42;;;;;;;;;;;;;;;-2.68;100.00;97088.56;5074120;28;19945;-72
2023/01/22 00:18:08;;;;;;;;;;;;;;;-2.66;100.00;97079.78;5074199;28;20381;-72
2023/01/22 00:20:34;;;;;;;;;;;;;;;-2.67;100.00;97080.75;5074054;28;20002;-72
2023/01/22 00:22:59;;;;;;;;;;;;;;;-2.67;100.00;97077.34;5074610;28;19957;-72
2023/01/22 00:25:25;;;;;;;;;;;;;;;-2.66;100.00;97086.69;5074127;28;19955;-72
2023/01/22 00:27:51;;;;;;;;;;;;;;;-2.63;100.00;97083.06;5073844;28;20436;-72
2023/01/22 00:30:17;;;;;;;;;;;;;;;-2.65;100.00;97078.03;5074170;28;19950;-72
2023/01/22 00:32:44;;;;;;;;;;;;;;;-2.64;100.00;97077.09;5073959;28;19961;-72
2023/01/22 00:35:10;;;;;;;;;;;;;;;-2.64;100.00;97077.09;5073750;28;19959;-72
2023/01/22 00:37:36;;;;;;;;;;;;;;;-2.63;100.00;97071.03;5073919;28;20366;-72
2023/01/22 00:40:02;;;;;;;;;;;;;;;-2.61;100.00;97076.84;5073789;28;19956;-72
2023/01/22 00:42:27;;;;;;;;;;;;;;;-2.58;100.00;97066.38;5073791;28;20001;-73
2023/01/22 00:44:53;;;;;;;;;;;;;;;-2.55;100.00;97070.44;5073825;28;19959;-72
2023/01/22 00:47:19;;;;;;;;;;;;;;;-2.55;100.00;97073.81;5073837;28;19997;-72
2023/01/22 00:49:45;;;;;;;;;;;;;;;-2.55;100.00;97063.53;5072725;28;19958;-72
2023/01/22 00:52:11;;;;;;;;;;;;;;;-2.56;100.00;97066.22;5073842;28;19996;-72
2023/01/22 00:54:37;;;;;;;;;;;;;;;-2.56;100.00;97064.50;5073990;28;20389;-73
2023/01/22 00:57:03;;;;;;;;;;;;;;;-2.56;100.00;97059.34;5074293;28;19969;-72
2023/01/22 00:59:29;;;;;;;;;;;;;;;-2.53;100.00;97055.72;5072325;28;19950;-72
2023/01/22 01:01:54;;;;;;;;;;;;;;;-2.50;100.00;97066.59;5073691;28;19983;-72
2023/01/22 01:04:20;;;;;;;;;;;;;;;-2.51;100.00;97059.00;5074159;28;20005;-72
2023/01/22 01:06:46;;;;;;;;;;;;;;;-2.51;100.00;97061.56;5073454;28;20002;-72
2023/01/22 01:09:12;;;;;;;;;;;;;;;-2.48;100.00;97067.28;5073837;28;20066;-72
2023/01/22 01:11:38;;;;;;;;;;;;;;;-2.45;100.00;97061.88;5074082;28;20418;-72
2023/01/22 01:14:04;;;;;;;;;;;;;;;-2.44;100.00;97067.81;5073480;28;19952;-72
2023/01/22 01:16:31;;;;;;;;;;;;;;;-2.43;100.00;97069.47;5073428;28;19987;-72
2023/01/22 01:19:01;;;;;;;;;;;;;;;-2.46;100.00;97065.41;5073336;28;19964;-72
2023/01/22 01:21:27;;;;;;;;;;;;;;;-2.42;100.00;97070.28;5073546;28;19946;-73
2023/01/22 01:23:53;;;;;;;;;;;;;;;-2.42;100.00;97068.53;5072052;28;20427;-73
2023/01/22 01:26:19;;;;;;;;;;;;;;;-2.38;100.00;97066.53;5073765;28;20337;-72
2023/01/22 01:28:45;;;;;;;;;;;;;;;-2.34;100.00;97067.94;5073302;28;20038;-72
2023/01/22 01:31:13;;;;;;;;;;;;;;;-2.37;100.00;97070.72;5073282;28;19956;-72
2023/01/22 01:33:39;;;;;;;;;;;;;;;-2.38;100.00;97072.47;5073155;28;20403;-72
2023/01/22 01:36:06;;;;;;;;;;;;;;;-2.39;100.00;97075.16;5073604;28;20302;-72
2023/01/22 01:38:32;;;;;;;;;;;;;;;-2.42;100.00;97071.09;5073160;28;19957;-72
2023/01/22 01:40:58;;;;;;;;;;;;;;;-2.41;100.00;97070.16;5073785;28;19949;-72
2023/01/22 01:43:24;;;;;;;;;;;;;;;-2.41;100.00;97070.16;5072962;28;20429;-72
2023/01/22 01:45:50;;;;;;;;;;;;;;;-2.42;100.00;97067.72;5073130;28;20043;-73
2023/01/22 01:48:15;;;;;;;;;;;;;;;-2.46;100.00;97065.41;5073068;28;19962;-72
2023/01/22 01:50:45;;;;;;;;;;;;;;;-2.50;100.00;97071.72;5073137;28;20297;-72
2023/01/22 01:53:10;;;;;;;;;;;;;;;-2.52;100.00;97059.91;5072958;28;19949;-72
2023/01/22 01:55:38;;;;;;;;;;;;;;;-2.55;100.00;97058.41;5072585;28;19995;-72
2023/01/22 01:58:07;;;;;;;;;;;;;;;-2.54;100.00;97054.06;5074151;28;19964;-72
2023/01/22 02:00:35;;;;;;;;;;;;;;;-2.53;100.00;97055.72;5077116;28;20294;-72
2023/01/22 02:03:01;;;;;;;;;;;;;;;-2.54;100.00;97060.06;5076690;28;19948;-72
2023/01/22 02:05:29;;;;;;;;;;;;;;;-2.54;100.00;97057.47;5076857;28;19961;-72
2023/01/22 02:07:55;;;;;;;;;;;;;;;-2.52;100.00;97062.47;5076622;28;19946;-72
2023/01/22 02:10:21;;;;;;;;;;;;;;;-2.52;100.00;97059.91;5077147;28;20012;-72
2023/01/22 02:12:47;;;;;;;;;;;;;;;-2.52;100.00;97063.31;5076433;28;19950;-73
2023/01/22 02:15:13;;;;;;;;;;;;;;;-2.50;100.00;97061.44;5076683;28;19953;-72
2023/01/22 02:17:39;;;;;;;;;;;;;;;-2.48;100.00;97061.31;5076382;28;20057;-72
2023/01/22 02:20:05;;;;;;;;;;;;;;;-2.51;100.00;97064.13;5076755;28;19952;-72
2023/01/22 02:22:32;;;;;;;;;;;;;;;-2.50;100.00;97061.44;5076549;28;19953;-72
2023/01/22 02:24:58;;;;;;;;;;;;;;;-2.48;100.00;97061.31;5076371;28;19942;-72
2023/01/22 02:27:24;;;;;;;;;;;;;;;-2.47;100.00;97053.47;5076343;28;19948;-73
2023/01/22 02:29:50;;;;;;;;;;;;;;;-2.46;100.00;97064.56;5076461;28;20444;-72
2023/01/22 02:32:16;;;;;;;;;;;;;;;-2.47;100.00;97056.06;5076096;28;19958;-73
2023/01/22 02:34:42;;;;;;;;;;;;;;;-2.47;100.00;97057.81;5074941;28;19963;-72
2023/01/22 02:37:08;;;;;;;;;;;;;;;-2.47;100.00;97057.81;5076277;28;20043;-72
2023/01/22 02:39:34;;;;;;;;;;;;;;;-2.45;100.00;97053.38;5076252;28;19961;-72
2023/01/22 02:42:00;;;;;;;;;;;;;;;-2.48;100.00;97041.59;5076283;28;19975;-73
2023/01/22 02:44:26;;;;;;;;;;;;;;;-2.48;100.00;97043.31;5075932;28;19956;-73
2023/01/22 02:46:52;;;;;;;;;;;;;;;-2.49;100.00;97045.09;5075891;28;19992;-72
2023/01/22 02:49:18;;;;;;;;;;;;;;;-2.48;100.00;97046.72;5076021;28;19957;-72
2023/01/22 02:51:44;;;;;;;;;;;;;;;-2.48;100.00;97049.28;5075952;28;19959;-72
2023/01/22 02:54:09;;;;;;;;;;;;;;;-2.44;100.00;97044.72;5075977;28;20369;-72
2023/01/22 02:56:35;;;;;;;;;;;;;;;-2.42;100.00;97042.03;5075733;28;19963;-72
2023/01/22 02:59:03;;;;;;;;;;;;;;;-2.42;100.00;97036.91;5075781;28;19958;-73
2023/01/22 03:01:29;;;;;;;;;;;;;;;-2.43;100.00;97038.66;5075938;28;20316;-72
2023/01/22 03:03:56;;;;;;;;;;;;;;;-2.45;100.00;97041.34;5075761;28;20427;-72
2023/01/22 03:06:24;;;;;;;;;;;;;;;-2.45;100.00;97041.34;5075838;28;20316;-72
2023/01/22 03:08:57;;;;;;;;;;;;;;;-2.43;100.00;97037.84;5074305;28;19956;-73
2023/01/22 03:11:24;;;;;;;;;;;;;;;-2.43;100.00;97043.78;5075483;28;19954;-72
2023/01/22 03:22:04;;;;;;;;;;;;;;;-2.41;100.00;97036.78;5075654;28;20403;-72
2023/01/22 03:24:30;;;;;;;;;;;;;;;-2.39;100.00;97039.22;5075375;28;19968;-73
2023/01/22 03:26:56;;;;;;;;;;;;;;;-2.40;100.00;97030.69;5075406;28;19957;-72
2023/01/22 03:29:22;;;;;;;;;;;;;;;-2.39;100.00;97037.47;5074166;28;19952;-72
2023/01/22 03:31:48;;;;;;;;;;;;;;;-2.38;100.00;97033.94;5074949;28;19992;-73
2023/01/22 03:34:15;;;;;;;;;;;;;;;-2.35;100.00;97027.75;5075093;28;20437;-72
2023/01/22 03:36:41;;;;;;;;;;;;;;;-2.34;100.00;97031.97;5074085;28;19970;-73
2023/01/22 03:39:07;;;;;;;;;;;;;;;-2.33;100.00;97036.16;5074036;28;19963;-72
2023/01/22 03:41:33;;;;;;;;;;;;;;;-2.36;100.00;97041.53;5075168;28;19977;-72
2023/01/22 03:44:02;;;;;;;;;;;;;;;-2.37;100.00;97039.91;5075256;28;19962;-72
2023/01/22 03:46:28;;;;;;;;;;;;;;;-2.36;100.00;97044.13;5074076;28;19956;-72
2023/01/22 03:48:55;;;;;;;;;;;;;;;-2.37;100.00;97039.91;5073599;28;20402;-72
2023/01/22 03:51:21;;;;;;;;;;;;;;;-2.37;100.00;97043.31;5074844;28;19986;-72
2023/01/22 03:53:47;;;;;;;;;;;;;;;-2.35;100.00;97045.72;5074735;28;19951;-73
2023/01/22 03:56:19;;;;;;;;;;;;;;;-2.36;100.00;97050.06;5073968;28;19997;-72
2023/01/22 03:58:46;;;;;;;;;;;;;;;-2.36;100.00;97042.34;5074011;28;19948;-72
2023/01/22 04:01:16;;;;;;;;;;;;;;;-2.35;100.00;97046.56;5073522;28;19962;-73
2023/01/22 04:03:42;;;;;;;;;;;;;;;-2.36;100.00;97050.06;5073229;28;19952;-72
2023/01/22 04:06:09;;;;;;;;;;;;;;;-2.33;100.00;97043.84;5074803;28;19961;-72
2023/01/22 04:08:36;;;;;;;;;;;;;;;-2.35;100.00;97041.44;5074352;28;19949;-72
2023/01/22 04:11:02;;;;;;;;;;;;;;;-2.34;100.00;97034.53;5074208;28;19962;-72
2023/01/22 04:13:29;;;;;;;;;;;;;;;-2.33;100.00;97036.16;5074504;28;19956;-72
2023/01/22 04:15:55;;;;;;;;;;;;;;;-2.37;100.00;97035.59;5073244;28;19954;-72
2023/01/22 04:18:21;;;;;;;;;;;;;;;-2.37;100.00;97045.03;5074548;28;19978;-72
2023/01/22 04:20:47;;;;;;;;;;;;;;;-2.36;100.00;97046.69;5073700;28;19957;-72
2023/01/22 04:23:13;;;;;;;;;;;;;;;-2.33;100.00;97042.13;5074245;28;20324;-72
2023/01/22 04:25:39;;;;;;;;;;;;;;;-2.31;100.00;97052.25;5074048;28;19952;-72
2023/01/22 04:28:06;;;;;;;;;;;;;;;-2.29;100.00;97051.22;5073160;28;20007;-72
2023/01/22 04:30:32;;;;;;;;;;;;;;;-2.27;100.00;97053.66;5074302;28;19956;-72
2023/01/22 04:32:58;;;;;;;;;;;;;;;-2.26;100.00;97056.09;5074212;28;19950;-72
2023/01/22 04:35:23;;;;;;;;;;;;;;;-2.23;100.00;97051.66;5073810;28;19949;-72
2023/01/22 04:37:49;;;;;;;;;;;;;;;-2.22;100.00;97053.31;5073871;28;20346;-72
2023/01/22 04:40:15;;;;;;;;;;;;;;;-2.22;100.00;97055.88;5073875;28;20032;-72
2023/01/22 04:42:41;;;;;;;;;;;;;;;-2.19;100.00;97059.00;5073691;28;20372;-72
2023/01/22 04:45:07;;;;;;;;;;;;;;;-2.18;100.00;97059.78;5073739;28;20025;-72
2023/01/22 04:47:33;;;;;;;;;;;;;;;-2.17;100.00;97057.09;5074045;28;19956;-73
2023/01/22 04:49:59;;;;;;;;;;;;;;;-2.15;100.00;97057.00;5073812;28;20006;-72
2023/01/22 04:52:25;;;;;;;;;;;;;;;-2.12;100.00;97061.88;5073622;28;19993;-72
2023/01/22 04:54:52;;;;;;;;;;;;;;;-2.11;100.00;97060.94;5073627;28;20017;-72
2023/01/22 04:57:18;;;;;;;;;;;;;;;-2.08;100.00;97066.66;5073732;28;19993;-72
2023/01/22 04:59:44;;;;;;;;;;;;;;;-2.05;100.00;97068.16;5073481;28;19957;-72
2023/01/22 05:02:10;;;;;;;;;;;;;;;-2.05;100.00;97065.59;5073700;28;20390;-72
2023/01/22 05:04:36;;;;;;;;;;;;;;;-2.02;100.00;97070.47;5073543;28;20002;-72
2023/01/22 05:07:02;;;;;;;;;;;;;;;-2.01;100.00;97069.56;5073508;28;19957;-72
2023/01/22 05:09:27;;;;;;;;;;;;;;;-1.99;100.00;97072.00;5073725;28;19951;-72
2023/01/22 05:11:53;;;;;;;;;;;;;;;-1.98;100.00;97071.88;5073619;28;19959;-72
2023/01/22 05:14:19;;;;;;;;;;;;;;;-1.94;100.00;97075.00;5073327;28;19956;-72
2023/01/22 05:16:45;;;;;;;;;;;;;;;-1.94;100.00;97077.59;5073311;28;20479;-73
2023/01/22 05:19:11;;;;;;;;;;;;;;;-1.97;100.00;97081.22;5073965;28;20323;-73
2023/01/22 05:21:37;;;;;;;;;;;;;;;-1.99;100.00;97084.88;5073576;28;19960;-72
2023/01/22 05:24:03;;;;;;;;;;;;;;;-2.00;100.00;97086.59;5073478;28;19948;-72
2023/01/22 05:26:29;;;;;;;;;;;;;;;-1.98;100.00;97089.03;5073453;28;19962;-72
2023/01/22 05:28:55;;;;;;;;;;;;;;;-1.99;100.00;97090.00;5073184;28;19951;-72
2023/01/22 05:31:21;;;;;;;;;;;;;;;-1.99;100.00;97093.38;5073489;28;19963;-72
2023/01/22 05:33:47;;;;;;;;;;;;;;;-2.00;100.00;97091.72;5077071;28;20396;-72
2023/01/22 05:36:13;;;;;;;;;;;;;;;-2.00;100.00;97088.34;5077577;28;20002;-73
2023/01/22 05:38:39;;;;;;;;;;;;;;;-2.00;100.00;97094.31;5077567;28;19992;-72
2023/01/22 05:41:05;;;;;;;;;;;;;;;-2.01;100.00;97090.13;5077433;28;20004;-72
2023/01/22 05:43:31;;;;;;;;;;;;;;;-1.99;100.00;97090.81;5076879;28;20426;-72
2023/01/22 05:46:00;;;;;;;;;;;;;;;-2.01;100.00;97090.13;5077311;28;20333;-72
2023/01/22 05:48:26;;;;;;;;;;;;;;;-2.04;100.00;97090.34;5077717;28;19955;-73
2023/01/22 05:50:52;;;;;;;;;;;;;;;-2.07;100.00;97096.56;5077061;28;19951;-72
2023/01/22 05:53:18;;;;;;;;;;;;;;;-2.10;100.00;97094.25;5077204;28;19950;-72
2023/01/22 05:55:44;;;;;;;;;;;;;;;-2.09;100.00;97107.91;5077018;28;19955;-73
2023/01/22 05:58:09;;;;;;;;;;;;;;;-2.09;100.00;97113.03;5077098;28;20019;-72
2023/01/22 06:00:35;;;;;;;;;;;;;;;-2.07;100.00;97104.25;5077614;28;19951;-72
2023/01/22 06:03:01;;;;;;;;;;;;;;;-2.03;100.00;97101.47;5076955;28;20484;-72
2023/01/22 06:05:27;;;;;;;;;;;;;;;-2.03;100.00;97104.84;5076692;28;19966;-72
2023/01/22 06:07:53;;;;;;;;;;;;;;;-2.03;100.00;97099.69;5076785;28;19989;-72
2023/01/22 06:10:19;;;;;;;;;;;;;;;-2.01;100.00;97107.31;5077109;28;20042;-72
2023/01/22 06:12:45;;;;;;;;;;;;;;;-2.02;100.00;97108.22;5077029;28;20332;-72
2023/01/22 06:15:11;;;;;;;;;;;;;;;-2.02;100.00;97110.78;5076542;28;19947;-72
2023/01/22 06:17:37;;;;;;;;;;;;;;;-2.01;100.00;97109.88;5076547;28;19956;-72
2023/01/22 06:20:04;;;;;;;;;;;;;;;-2.01;100.00;97115.00;5076658;28;20015;-72
2023/01/22 06:22:29;;;;;;;;;;;;;;;-1.99;100.00;97115.72;5076900;28;19953;-72
2023/01/22 06:24:55;;;;;;;;;;;;;;;-1.98;100.00;97113.00;5076437;28;19957;-73
2023/01/22 06:27:21;;;;;;;;;;;;;;;-1.96;100.00;97108.53;5076763;28;19953;-72
2023/01/22 06:29:47;;;;;;;;;;;;;;;-1.91;100.00;97110.75;5076482;28;19981;-72
2023/01/22 06:32:13;;;;;;;;;;;;;;;-1.89;100.00;97109.69;5076883;28;19952;-74
2023/01/22 06:34:39;;;;;;;;;;;;;;;-1.87;100.00;97114.69;5076270;28;20041;-73
2023/01/22 06:37:05;;;;;;;;;;;;;;;-1.86;100.00;97124.06;5076274;28;20004;-72
2023/01/22 06:39:30;;;;;;;;;;;;;;;-1.82;100.00;97124.63;5076098;28;19948;-73
2023/01/22 06:41:56;;;;;;;;;;;;;;;-1.84;100.00;97112.69;5076233;28;19974;-72
2023/01/22 06:44:22;;;;;;;;;;;;;;;-1.85;100.00;97120.53;5075963;28;19964;-72
2023/01/22 06:46:48;;;;;;;;;;;;;;;-1.84;100.00;97125.56;5076258;28;20022;-72
2023/01/22 06:49:14;;;;;;;;;;;;;;;-1.82;100.00;97133.16;5076149;28;19992;-72
2023/01/22 06:51:40;;;;;;;;;;;;;;;-1.82;100.00;97130.59;5075927;28;19947;-72
2023/01/22 06:54:06;;;;;;;;;;;;;;;-1.82;100.00;97133.16;5075828;28;19944;-73
2023/01/22 06:56:32;;;;;;;;;;;;;;;-1.85;100.00;97133.38;5075762;28;19954;-72
2023/01/22 06:58:58;;;;;;;;;;;;;;;-1.86;100.00;97136.91;5075699;28;20378;-73
2023/01/22 07:01:24;;;;;;;;;;;;;;;-1.87;100.00;97143.81;5075791;28;19949;-72
2023/01/22 07:03:50;;;;;;;;;;;;;;;-1.90;100.00;97149.19;5075460;28;19954;-72
2023/01/22 07:06:17;;;;;;;;;;;;;;;-1.89;100.00;97153.41;5075775;28;19964;-72
2023/01/22 07:08:43;;;;;;;;;;;;;;;-1.88;100.00;97154.22;5074525;28;19951;-73
2023/01/22 07:11:09;;;;;;;;;;;;;;;-1.88;100.00;97149.06;5074820;28;19964;-72
2023/01/22 07:13:35;;;;;;;;;;;;;;;-1.88;100.00;97161.91;5075458;28;19947;-72
2023/01/22 07:16:02;;;;;;;;;;;;;;;-1.88;100.00;97155.00;5075780;28;19981;-72
2023/01/22 07:18:28;;;;;;;;;;;;;;;-1.85;100.00;97165.06;5075390;28;19965;-72
2023/01/22 07:20:54;;;;;;;;;;;;;;;-1.84;100.00;97164.13;5075638;28;20332;-73
2023/01/22 07:23:20;;;;;;;;;;;;;;;-1.85;100.00;97164.22;5074563;28;19949;-73
2023/01/22 07:25:46;;;;;;;;;;;;;;;-1.86;100.00;97168.56;5075193;28;19963;-72
2023/01/22 07:28:13;;;;;;;;;;;;;;;-1.83;100.00;97177.78;5074196;28;19956;-72
2023/01/22 07:30:40;;;;;;;;;;;;;;;-1.81;100.00;97173.34;5075372;28;20449;-72
2023/01/22 07:33:09;;;;;;;;;;;;;;;-1.78;100.00;97172.31;5075450;28;19959;-72
2023/01/22 07:35:35;;;;;;;;;;;;;;;-1.75;100.00;97179.75;5075241;28;19945;-72
2023/01/22 07:38:01;;;;;;;;;;;;;;;-1.76;100.00;97171.22;5075124;28;19973;-72
2023/01/22 07:40:27;;;;;;;;;;;;;;;-1.73;100.00;97178.69;5073967;28;19999;-72
2023/01/22 07:42:53;;;;;;;;;;;;;;;-1.69;100.00;97177.50;5074689;28;19980;-73
2023/01/22 07:45:19;;;;;;;;;;;;;;;-1.66;100.00;97176.44;5075101;28;19954;-72
2023/01/22 07:47:56;;;;;;;;;;;;;;;-1.65;100.00;97172.94;5073772;28;19949;-72
2023/01/22 07:50:22;;;;;;;;;;;;;;;-1.61;100.00;97171.75;5074708;28;19946;-72
2023/01/22 07:52:48;;;;;;;;;;;;;;;-1.58;100.00;97180.97;5075516;28;19942;-73
2023/01/22 07:55:14;;;;;;;;;;;;;;;-1.55;100.00;97181.53;5074138;28;19994;-72
2023/01/22 07:57:41;;;;;;;;;;;;;;;-1.49;100.00;97182.78;5074615;28;19963;-72
2023/01/22 08:00:09;;;;;;;;;;;;;;;-1.46;100.00;97178.22;5073540;28;19959;-72
2023/01/22 08:02:35;;;;;;;;;;;;;;;-1.40;100.00;97183.81;5075022;28;19942;-72
2023/01/22 08:05:01;;;;;;;;;;;;;;;-1.39;100.00;97181.09;5074410;28;20404;-72
2023/01/22 08:07:29;;;;;;;;;;;;;;;-1.35;100.00;97181.69;5074403;28;19952;-73
2023/01/22 08:09:55;;;;;;;;;;;;;;;-1.33;100.00;97182.38;5065982;28;19976;-72
2023/01/22 08:12:21;;;;;;;;;;;;;;;-1.31;100.00;97186.44;5074730;28;19963;-72
2023/01/22 08:14:47;;;;;;;;;;;;;;;-1.27;100.00;97187.81;5074318;28;20348;-72
2023/01/22 08:17:13;;;;;;;;;;;;;;;-1.22;100.00;97187.44;5074172;28;20002;-73
2023/01/22 08:19:38;;;;;;;;;;;;;;;-1.18;100.00;97191.41;5074202;28;20425;-72
2023/01/22 08:22:04;;;;;;;;;;;;;;;-1.16;100.00;97194.66;5074186;28;20007;-72
2023/01/22 08:24:31;;;;;;;;;;;;;;;-1.12;100.00;97197.81;5074226;28;19963;-72
2023/01/22 08:26:57;;;;;;;;;;;;;;;-1.06;100.00;97197.31;5074103;28;19961;-73
2023/01/22 08:29:23;;;;;;;;;;;;;;;-0.99;100.00;97202.75;5074038;28;20338;-72
2023/01/22 08:31:49;;;;;;;;;;;;;;;-0.95;100.00;97211.88;5074042;28;19946;-73
2023/01/22 08:34:15;;;;;;;;;;;;;;;-0.91;100.00;97203.75;5073787;28;19952;-73
2023/01/22 08:36:41;;;;;;;;;;;;;;;-0.89;100.00;97209.59;5074012;28;20313;-73
2023/01/22 08:39:09;;;;;;;;;;;;;;;-0.85;100.00;97207.59;5073830;28;20013;-72
2023/01/22 08:41:35;;;;;;;;;;;;;;;-0.81;100.00;97214.13;5074241;28;19974;-73
2023/01/22 08:44:01;;;;;;;;;;;;;;;-0.84;100.00;97210.06;5064638;28;19949;-72
2023/01/22 08:46:27;;;;;;;;;;;;;;;-0.83;100.00;97211.66;5073786;28;20298;-72
2023/01/22 08:48:53;;;;;;;;;;;;;;;-0.82;100.00;97217.63;5073893;28;19995;-72
2023/01/22 08:51:21;;;;;;;;;;;;;;;-0.80;100.00;97220.88;5073695;28;20491;-73
2023/01/22 08:53:47;;;;;;;;;;;;;;;-0.82;100.00;97209.91;5073843;28;19966;-72
2023/01/22 08:56:13;;;;;;;;;;;;;;;-0.82;100.00;97210.75;5073729;28;20412;-72
2023/01/22 08:58:39;;;;;;;;;;;;;;;-0.82;100.00;97220.19;5073883;28;20011;-72
2023/01/22 09:01:05;;;;;;;;;;;;;;;-0.81;100.00;97219.28;5073660;28;20469;-72
2023/01/22 09:03:30;;;;;;;;;;;;;;;-0.84;100.00;97224.66;5073564;28;20543;-72
2023/01/22 09:05:57;;;;;;;;;;;;;;;-0.89;100.00;97211.38;5073484;28;19949;-72
2023/01/22 09:08:23;;;;;;;;;;;;;;;-0.89;100.00;97221.66;5073473;28;19947;-72
2023/01/22 09:10:49;;;;;;;;;;;;;;;-0.89;100.00;97226.81;5073376;28;20317;-72
2023/01/22 09:13:15;;;;;;;;;;;;;;;-0.89;100.00;97229.38;5073820;28;20035;-72
2023/01/22 09:15:41;;;;;;;;;;;;;;;-0.89;100.00;97231.97;5073521;28;19959;-73
2023/01/22 09:18:07;;;;;;;;;;;;;;;-0.89;100.00;97235.34;5073497;28;20015;-73
2023/01/22 09:20:32;;;;;;;;;;;;;;;-0.87;100.00;97230.09;5073341;28;19958;-72
2023/01/22 09:22:58;;;;;;;;;;;;;;;-0.85;100.00;97234.16;5073506;28;19954;-72
2023/01/22 09:25:25;;;;;;;;;;;;;;;-0.86;100.00;97227.38;5073310;28;19956;-72
2023/01/22 09:27:55;;;;;;;;;;;;;;;-0.84;100.00;97233.22;5073331;28;19953;-72
2023/01/22 09:30:22;;;;;;;;;;;;;;;-0.79;100.00;97240.56;5073528;28;19954;-72
2023/01/22 09:32:48;;;;;;;;;;;;;;;-0.78;100.00;97242.19;5073179;28;19965;-73
2023/01/22 09:35:14;;;;;;;;;;;;;;;-0.73;100.00;97241.81;5073422;28;20418;-72
2023/01/22 09:37:39;;;;;;;;;;;;;;;-0.70;100.00;97234.63;5073136;28;19955;-73
2023/01/22 09:40:06;;;;;;;;;;;;;;;-0.66;100.00;97233.44;5074134;28;20349;-72
2023/01/22 09:42:34;;;;;;;;;;;;;;;-0.62;100.00;97236.59;5073156;28;20354;-72
2023/01/22 09:45:03;;;;;;;;;;;;;;;-0.60;100.00;97229.53;5073224;28;19952;-72
2023/01/22 09:47:32;;;;;;;;;;;;;;;-0.60;100.00;97229.53;5073453;28;19948;-72
2023/01/22 09:50:01;;;;;;;;;;;;;;;-0.58;100.00;97232.00;5073093;28;19952;-73
2023/01/22 09:52:28;;;;;;;;;;;;;;;-0.56;100.00;97228.34;5073599;28;19957;-72
2023/01/22 09:54:55;;;;;;;;;;;;;;;-0.52;100.00;97237.44;5073368;28;20351;-72
2023/01/22 09:57:21;;;;;;;;;;;;;;;-0.46;100.00;97233.56;5073320;28;19951;-73
2023/01/22 09:59:51;;;;;;;;;;;;;;;-0.39;100.00;97233.84;5073086;28;19969;-72
2023/01/22 10:02:46;;;;;;;;;;;;;;;-0.36;100.00;97233.56;5073335;28;19949;-72
2023/01/22 10:05:22;;;;;;;;;;;;;;;-0.37;100.00;97232.78;5056484;28;19954;-73
2023/01/22 10:07:54;;;;;;;;;;;;;;;-0.33;100.00;97238.50;5073080;28;19946;-73
2023/01/22 10:10:21;;;;;;;;;;;;;;;-0.34;100.00;97236.84;5073749;28;19957;-72
2023/01/22 10:13:10;;;;;;;;;;;;;;;-0.32;100.00;97240.09;5072808;28;19949;-72
2023/01/22 10:15:36;;;;;;;;;;;;;;;-0.27;100.00;97241.34;5064901;28;20424;-73
2023/01/22 10:18:06;;;;;;;;;;;;;;;-0.21;100.00;97235.69;5073615;28;19964;-73
2023/01/22 10:20:32;;;;;;;;;;;;;;;-0.18;100.00;97237.19;5075939;28;20466;-73
2023/01/22 10:23:00;;;;;;;;;;;;;;;-0.17;100.00;97235.41;5076707;28;19947;-73
2023/01/22 10:25:27;;;;;;;;;;;;;;;-0.17;100.00;97232.81;5076389;28;19947;-73
2023/01/22 10:27:58;;;;;;;;;;;;;;;-0.16;100.00;97226.75;5076400;28;19952;-72
2023/01/22 10:30:24;;;;;;;;;;;;;;;-0.13;100.00;97245.31;5076223;28;20410;-72
2023/01/22 10:33:05;;;;;;;;;;;;;;;-0.11;100.00;97235.69;5076433;28;19951;-73
2023/01/22 10:35:40;;;;;;;;;;;;;;;-0.03;100.00;97243.59;5076268;28;19957;-72
2023/01/22 10:38:19;;;;;;;;;;;;;;;0.05;100.00;97244.72;5076320;28;19967;-72
2023/01/22 10:40:45;;;;;;;;;;;;;;;0.06;100.00;97241.97;5064092;28;20338;-72
2023/01/22 10:43:12;;;;;;;;;;;;;;;0.09;100.00;97235.75;5076614;28;19972;-74
2023/01/22 10:45:51;;;;;;;;;;;;;;;0.19;100.00;97224.50;5076310;28;20442;-72
2023/01/22 10:48:20;;;;;;;;;;;;;;;0.31;100.00;97232.13;5065038;28;21645;-72
2023/01/22 10:50:57;;;;;;;;;;;;;;;0.41;100.00;97227.78;5075953;28;19956;-72
2023/01/22 10:53:28;;;;;;;;;;;;;;;0.49;100.00;97221.97;5076223;28;20485;-72
2023/01/22 10:55:56;;;;;;;;;;;;;;;0.57;100.00;97220.34;5060661;28;19943;-72
2023/01/22 10:58:23;;;;;;;;;;;;;;;0.62;100.00;97225.09;5076719;28;19967;-72
2023/01/22 11:00:57;;;;;;;;;;;;;;;0.65;99.97;97221.41;5075933;28;19959;-72
2023/01/22 11:03:27;;;;;;;;;;;;;;;0.71;100.00;97221.66;5059642;28;19956;-73
2023/01/22 11:06:12;;;;;;;;;;;;;;;0.83;99.52;97218.97;5076107;28;19948;-72
2023/01/22 11:08:42;;;;;;;;;;;;;;;0.80;98.09;97213.13;5075602;28;19949;-72
2023/01/22 11:11:09;;;;;;;;;;;;;;;0.81;97.52;97226.84;5075554;28;19956;-73
2023/01/22 11:13:49;;;;;;;;;;;;;;;0.76;97.45;97216.94;5075780;28;19954;-72
2023/01/22 11:16:22;;;;;;;;;;;;;;;0.66;97.97;97234.19;5075671;28;19946;-72
2023/01/22 11:18:54;;;;;;;;;;;;;;;0.55;99.34;97237.72;5075516;28;20028;-72
2023/01/22 11:21:26;;;;;;;;;;;;;;;0.44;99.19;97239.59;5074550;28;19955;-72
2023/01/22 11:23:54;;;;;;;;;;;;;;;0.39;99.61;97240.81;5075589;28;20315;-72
2023/01/22 11:26:27;;;;;;;;;;;;;;;0.34;100.00;97252.50;5075650;28;19953;-72
2023/01/22 11:28:59;;;;;;;;;;;;;;;0.28;100.00;97263.34;5065255;28;19959;-72
2023/01/22 11:31:31;;;;;;;;;;;;;;;0.23;100.00;97253.41;5074443;28;19958;-72
2023/01/22 11:34:00;;;;;;;;;;;;;;;0.21;99.80;97247.59;5066009;28;19950;-72
2023/01/22 11:36:45;;;;;;;;;;;;;;;0.24;100.00;97246.50;5074972;28;19951;-72
2023/01/22 11:39:20;;;;;;;;;;;;;;;0.31;100.00;97255.34;5075077;28;19972;-73
2023/01/22 11:42:04;;;;;;;;;;;;;;;0.40;100.00;97246.81;5075118;28;19974;-73
2023/01/22 11:44:48;;;;;;;;;;;;;;;0.39;100.00;97240.00;5075114;28;19952;-73
2023/01/22 11:47:34;;;;;;;;;;;;;;;0.38;100.00;97240.97;5074868;28;19951;-73
2023/01/22 11:50:00;;;;;;;;;;;;;;;0.39;100.00;97261.47;5074890;28;20422;-74
2023/01/22 11:52:26;;;;;;;;;;;;;;;0.36;100.00;97255.78;5074613;28;19970;-73
2023/01/22 11:54:58;;;;;;;;;;;;;;;0.28;100.00;97246.09;5074963;28;20409;-72
2023/01/22 11:57:32;;;;;;;;;;;;;;;0.20;100.00;97249.34;5074556;28;19944;-73
2023/01/22 12:00:16;;;;;;;;;;;;;;;0.15;100.00;97250.72;5074919;28;19969;-72
2023/01/22 12:02:45;;;;;;;;;;;;;;;0.04;100.00;97246.44;5074689;28;20282;-73
2023/01/22 12:05:22;;;;;;;;;;;;;;;-0.03;100.00;97243.59;5063763;28;19961;-73
2023/01/22 12:07:49;;;;;;;;;;;;;;;-0.06;100.00;97243.06;5059896;28;19944;-73
2023/01/22 12:10:34;;;;;;;;;;;;;;;-0.06;100.00;97254.19;5074454;28;20424;-73
2023/01/22 12:13:18;;;;;;;;;;;;;;;-0.06;100.00;97253.38;5074510;28;19952;-73
2023/01/22 12:15:53;;;;;;;;;;;;;;;-0.09;100.00;97254.44;5074482;28;19951;-73
2023/01/22 12:18:34;;;;;;;;;;;;;;;-0.12;100.00;97249.53;5074236;28;19969;-73
2023/01/22 12:21:00;;;;;;;;;;;;;;;-0.22;100.00;97246.13;5074121;28;19950;-73
2023/01/22 12:23:32;;;;;;;;;;;;;;;-0.26;100.00;97245.56;5062727;28;19956;-73
2023/01/22 12:25:58;;;;;;;;;;;;;;;-0.23;100.00;97253.03;5073719;28;20305;-73
2023/01/22 12:28:33;;;;;;;;;;;;;;;-0.14;100.00;97256.59;5074461;28;19953;-73
2023/01/22 12:31:02;;;;;;;;;;;;;;;-0.01;100.00;97248.63;5074136;28;19950;-73
2023/01/22 12:33:30;;;;;;;;;;;;;;;0.11;100.00;97241.59;5074257;28;19946;-73
2023/01/22 12:35:59;;;;;;;;;;;;;;;0.20;100.00;97240.81;5072815;28;19950;-73
2023/01/22 12:38:25;;;;;;;;;;;;;;;0.21;100.00;97242.44;5074384;28;19946;-73
2023/01/22 12:41:07;;;;;;;;;;;;;;;0.20;100.00;97254.50;5073854;28;19944;-73
2023/01/22 12:43:39;;;;;;;;;;;;;;;0.17;100.00;97249.63;5073976;28;19966;-73
2023/01/22 12:46:17;;;;;;;;;;;;;;;0.15;100.00;97259.25;5073076;28;19958;-73
2023/01/22 12:48:53;;;;;;;;;;;;;;;0.16;100.00;97262.66;5073670;28;19953;-73